sensor_id;sensor_type;location;lat;lon;timestamp;pressure;altitude;pressure_sealevel;temperature;humidity
16664;BME280;8445;51.270;9.434;2022-08-01T00:01:40;99395.78;;;20.88;nan
16664;BME280;8445;51.270;9.434;2022-08-01T00:04:06;99395.13;;;20.86;nan
16664;BME280;8445;51.270;9.434;2022-08-01T00:06:32;99398.19;;;20.83;nan
16664;BME280;8445;51.270;9.434;2022-08-01T00:08:58;99388.94;;;20.86;nan
16664;BME280;8445;51.270;9.434;2022-08-01T00:11:24;99393.94;;;20.89;nan
16664;BME280;8445;51.270;9.434;2022-08-01T00:13:50;99387.34;;;20.92;nan
16664;BME280;8445;51.270;9.434;2022-08-01T00:16:16;99377.59;;;20.91;nan
16664;BME280;8445;51.270;9.434;2022-08-01T00:18:42;99383.34;;;20.87;nan
16664;BME280;8445;51.270;9.434;2022-08-01T00:21:08;99381.69;;;20.86;nan
16664;BME280;8445;51.270;9.434;2022-08-01T00:23:33;99380.88;;;20.86;nan
16664;BME280;8445;51.270;9.434;2022-08-01T00:26:02;99387.91;;;20.87;nan
16664;BME280;8445;51.270;9.434;2022-08-01T00:28:28;99380.88;;;20.86;nan
16664;BME280;8445;51.270;9.434;2022-08-01T00:30:56;99382.69;;;20.85;nan
16664;BME280;8445;51.270;9.434;2022-08-01T00:33:22;99384.00;;;20.90;nan
16664;BME280;8445;51.270;9.434;2022-08-01T00:35:48;99381.78;;;20.93;nan
16664;BME280;8445;51.270;9.434;2022-08-01T00:38:13;99383.44;;;20.94;nan
16664;BME280;8445;51.270;9.434;2022-08-01T00:40:39;99383.63;;;20.93;nan
16664;BME280;8445;51.270;9.434;2022-08-01T00:43:05;99381.78;;;20.93;nan
16664;BME280;8445;51.270;9.434;2022-08-01T00:45:31;99374.72;;;20.92;nan
16664;BME280;8445;51.270;9.434;2022-08-01T00:47:57;99389.19;;;20.91;nan
16664;BME280;8445;51.270;9.434;2022-08-01T00:50:23;99390.69;;;20.94;nan
16664;BME280;8445;51.270;9.434;2022-08-01T00:52:51;99381.41;;;20.96;nan
16664;BME280;8445;51.270;9.434;2022-08-01T00:55:19;99388.44;;;20.97;nan
16664;BME280;8445;51.270;9.434;2022-08-01T00:57:47;99378.53;;;20.98;nan
16664;BME280;8445;51.270;9.434;2022-08-01T01:00:14;99379.72;;;20.95;nan
16664;BME280;8445;51.270;9.434;2022-08-01T01:02:40;99373.16;;;20.98;nan
16664;BME280;8445;51.270;9.434;2022-08-01T01:05:07;99374.84;;;20.99;nan
16664;BME280;8445;51.270;9.434;2022-08-01T01:07:58;99376.22;;;21.10;nan
16664;BME280;8445;51.270;9.434;2022-08-01T01:10:37;99372.50;;;21.11;nan
16664;BME280;8445;51.270;9.434;2022-08-01T01:13:14;99369.00;;;21.10;nan
16664;BME280;8445;51.270;9.434;2022-08-01T01:15:50;99366.13;;;21.12;nan
16664;BME280;8445;51.270;9.434;2022-08-01T01:18:39;99364.44;;;21.26;nan
16664;BME280;8445;51.270;9.434;2022-08-01T01:24:31;99367.75;;;21.28;nan
16664;BME280;8445;51.270;9.434;2022-08-01T01:27:36;99366.75;;;21.29;nan
16664;BME280;8445;51.270;9.434;2022-08-01T01:30:05;99367.97;;;21.11;nan
16664;BME280;8445;51.270;9.434;2022-08-01T01:35:09;99376.69;;;21.13;nan
16664;BME280;8445;51.270;9.434;2022-08-01T01:37:40;99377.72;;;21.12;nan
16664;BME280;8445;51.270;9.434;2022-08-01T01:40:09;99376.69;;;21.13;nan
16664;BME280;8445;51.270;9.434;2022-08-01T01:42:38;99382.09;;;21.13;nan
16664;BME280;8445;51.270;9.434;2022-08-01T01:45:07;99378.53;;;21.13;nan
16664;BME280;8445;51.270;9.434;2022-08-01T01:47:36;99379.94;;;21.09;nan
16664;BME280;8445;51.270;9.434;2022-08-01T01:50:05;99373.63;;;21.01;nan
16664;BME280;8445;51.270;9.434;2022-08-01T01:52:35;99378.53;;;20.98;nan
16664;BME280;8445;51.270;9.434;2022-08-01T01:55:07;99373.91;;;20.92;nan
16664;BME280;8445;51.270;9.434;2022-08-01T01:57:40;99370.13;;;20.86;nan
16664;BME280;8445;51.270;9.434;2022-08-01T02:00:11;99373.22;;;20.74;nan
16664;BME280;8445;51.270;9.434;2022-08-01T02:02:38;99365.03;;;20.68;nan
16664;BME280;8445;51.270;9.434;2022-08-01T02:05:08;99361.59;;;20.59;nan
16664;BME280;8445;51.270;9.434;2022-08-01T02:07:36;99361.59;;;20.59;nan
16664;BME280;8445;51.270;9.434;2022-08-01T02:10:04;99359.75;;;20.59;nan
16664;BME280;8445;51.270;9.434;2022-08-01T02:12:35;99358.53;;;20.62;nan
16664;BME280;8445;51.270;9.434;2022-08-01T02:15:04;99360.56;;;20.60;nan
16664;BME280;8445;51.270;9.434;2022-08-01T02:17:31;99365.75;;;20.62;nan
16664;BME280;8445;51.270;9.434;2022-08-01T02:19:58;99370.50;;;20.59;nan
16664;BME280;8445;51.270;9.434;2022-08-01T02:22:34;99371.06;;;20.70;nan
16664;BME280;8445;51.270;9.434;2022-08-01T02:25:07;99369.38;;;20.69;nan
16664;BME280;8445;51.270;9.434;2022-08-01T02:27:47;99372.03;;;20.77;nan
16664;BME280;8445;51.270;9.434;2022-08-01T02:30:17;99374.75;;;20.69;nan
16664;BME280;8445;51.270;9.434;2022-08-01T02:32:50;99376.25;;;20.71;nan
16664;BME280;8445;51.270;9.434;2022-08-01T02:35:33;99376.66;;;20.83;nan
16664;BME280;8445;51.270;9.434;2022-08-01T02:38:03;99379.41;;;20.75;nan
16664;BME280;8445;51.270;9.434;2022-08-01T02:40:33;99365.97;;;20.75;nan
16664;BME280;8445;51.270;9.434;2022-08-01T02:43:03;99370.69;;;20.73;nan
16664;BME280;8445;51.270;9.434;2022-08-01T02:45:33;99375.69;;;20.76;nan
16664;BME280;8445;51.270;9.434;2022-08-01T02:48:12;99371.28;;;20.83;nan
16664;BME280;8445;51.270;9.434;2022-08-01T02:50:44;99368.31;;;20.78;nan
16664;BME280;8445;51.270;9.434;2022-08-01T02:53:12;99368.31;;;20.78;nan
16664;BME280;8445;51.270;9.434;2022-08-01T02:55:43;99365.25;;;20.81;nan
16664;BME280;8445;51.270;9.434;2022-08-01T02:58:15;99357.56;;;20.78;nan
16664;BME280;8445;51.270;9.434;2022-08-01T03:00:44;99360.91;;;20.80;nan
16664;BME280;8445;51.270;9.434;2022-08-01T03:03:13;99360.91;;;20.80;nan
16664;BME280;8445;51.270;9.434;2022-08-01T03:05:40;99376.03;;;20.81;nan
16664;BME280;8445;51.270;9.434;2022-08-01T03:08:09;99378.72;;;20.81;nan
16664;BME280;8445;51.270;9.434;2022-08-01T03:10:41;99372.50;;;20.81;nan
16664;BME280;8445;51.270;9.434;2022-08-01T03:13:13;99376.66;;;20.83;nan
16664;BME280;8445;51.270;9.434;2022-08-01T03:15:43;99376.66;;;20.83;nan
16664;BME280;8445;51.270;9.434;2022-08-01T03:18:11;99373.34;;;20.81;nan
16664;BME280;8445;51.270;9.434;2022-08-01T03:20:38;99375.38;;;20.79;nan
16664;BME280;8445;51.270;9.434;2022-08-01T03:23:10;99373.34;;;20.81;nan
16664;BME280;8445;51.270;9.434;2022-08-01T03:25:40;99376.03;;;20.81;nan
16664;BME280;8445;51.270;9.434;2022-08-01T03:28:12;99378.72;;;20.81;nan
16664;BME280;8445;51.270;9.434;2022-08-01T03:30:40;99377.69;;;20.82;nan
16664;BME280;8445;51.270;9.434;2022-08-01T03:33:06;99382.34;;;20.88;nan
16664;BME280;8445;51.270;9.434;2022-08-01T03:35:48;99384.22;;;21.03;nan
16664;BME280;8445;51.270;9.434;2022-08-01T03:38:21;99377.03;;;20.95;nan
16664;BME280;8445;51.270;9.434;2022-08-01T03:41:11;99390.88;;;21.07;nan
16664;BME280;8445;51.270;9.434;2022-08-01T03:43:45;99385.22;;;21.02;nan
16664;BME280;8445;51.270;9.434;2022-08-01T03:46:21;99388.38;;;21.06;nan
16664;BME280;8445;51.270;9.434;2022-08-01T03:48:50;99385.22;;;21.02;nan
16664;BME280;8445;51.270;9.434;2022-08-01T03:51:22;99393.47;;;21.00;nan
16664;BME280;8445;51.270;9.434;2022-08-01T03:53:51;99400.16;;;21.05;nan
16664;BME280;8445;51.270;9.434;2022-08-01T03:56:22;99387.91;;;21.02;nan
16664;BME280;8445;51.270;9.434;2022-08-01T03:58:50;99391.25;;;21.04;nan
16664;BME280;8445;51.270;9.434;2022-08-01T04:01:18;99391.91;;;21.06;nan
16664;BME280;8445;51.270;9.434;2022-08-01T04:03:45;99381.16;;;21.06;nan
16664;BME280;8445;51.270;9.434;2022-08-01T04:06:11;99384.94;;;21.12;nan
16664;BME280;8445;51.270;9.434;2022-08-01T04:08:40;99380.59;;;21.11;nan
16664;BME280;8445;51.270;9.434;2022-08-01T04:11:08;99382.44;;;21.10;nan
16664;BME280;8445;51.270;9.434;2022-08-01T04:13:35;99388.66;;;21.11;nan
16664;BME280;8445;51.270;9.434;2022-08-01T04:16:01;99386.97;;;21.10;nan
16664;BME280;8445;51.270;9.434;2022-08-01T04:18:27;99394.88;;;21.11;nan
16664;BME280;8445;51.270;9.434;2022-08-01T04:20:53;99396.72;;;21.11;nan
16664;BME280;8445;51.270;9.434;2022-08-01T04:23:24;99399.53;;;21.17;nan
16664;BME280;8445;51.270;9.434;2022-08-01T04:25:53;99400.91;;;21.13;nan
16664;BME280;8445;51.270;9.434;2022-08-01T04:28:21;99401.72;;;21.14;nan
16664;BME280;8445;51.270;9.434;2022-08-01T04:30:52;99411.28;;;21.16;nan
16664;BME280;8445;51.270;9.434;2022-08-01T04:33:20;99409.63;;;21.15;nan
16664;BME280;8445;51.270;9.434;2022-08-01T04:35:51;99414.81;;;21.17;nan
16664;BME280;8445;51.270;9.434;2022-08-01T04:38:22;99412.31;;;21.15;nan
16664;BME280;8445;51.270;9.434;2022-08-01T04:40:53;99417.22;;;21.12;nan
16664;BME280;8445;51.270;9.434;2022-08-01T04:43:20;99432.53;;;21.11;nan
16664;BME280;8445;51.270;9.434;2022-08-01T04:45:47;99441.34;;;21.05;nan
16664;BME280;8445;51.270;9.434;2022-08-01T04:48:17;99440.69;;;21.03;nan
16664;BME280;8445;51.270;9.434;2022-08-01T04:50:45;99444.38;;;21.02;nan
16664;BME280;8445;51.270;9.434;2022-08-01T04:53:17;99437.63;;;21.06;nan
16664;BME280;8445;51.270;9.434;2022-08-01T04:55:44;99440.75;;;20.95;nan
16664;BME280;8445;51.270;9.434;2022-08-01T04:58:12;99437.78;;;20.90;nan
16664;BME280;8445;51.270;9.434;2022-08-01T05:00:38;99437.13;;;20.87;nan
16664;BME280;8445;51.270;9.434;2022-08-01T05:03:04;99438.06;;;20.95;nan
16664;BME280;8445;51.270;9.434;2022-08-01T05:05:30;99437.69;;;20.98;nan
16664;BME280;8445;51.270;9.434;2022-08-01T05:08:02;99442.63;;;21.09;nan
16664;BME280;8445;51.270;9.434;2022-08-01T05:10:28;99440.88;;;21.16;nan
16664;BME280;8445;51.270;9.434;2022-08-01T05:12:53;99446.53;;;21.22;nan
16664;BME280;8445;51.270;9.434;2022-08-01T05:15:19;99448.75;;;21.18;nan
16664;BME280;8445;51.270;9.434;2022-08-01T05:17:46;99448.03;;;21.24;nan
16664;BME280;8445;51.270;9.434;2022-08-01T05:20:12;99457.47;;;21.35;nan
16664;BME280;8445;51.270;9.434;2022-08-01T05:22:39;99458.63;;;21.41;nan
16664;BME280;8445;51.270;9.434;2022-08-01T05:25:05;99456.66;;;21.50;nan
16664;BME280;8445;51.270;9.434;2022-08-01T05:27:33;99453.69;;;21.44;nan
16664;BME280;8445;51.270;9.434;2022-08-01T05:30:09;99456.47;;;21.36;nan
16664;BME280;8445;51.270;9.434;2022-08-01T05:32:36;99452.47;;;21.32;nan
16664;BME280;8445;51.270;9.434;2022-08-01T05:35:02;99460.00;;;21.37;nan
16664;BME280;8445;51.270;9.434;2022-08-01T05:37:29;99454.91;;;21.42;nan
16664;BME280;8445;51.270;9.434;2022-08-01T05:39:54;99454.06;;;21.41;nan
16664;BME280;8445;51.270;9.434;2022-08-01T05:42:20;99450.34;;;21.42;nan
16664;BME280;8445;51.270;9.434;2022-08-01T05:44:46;99458.69;;;21.47;nan
16664;BME280;8445;51.270;9.434;2022-08-01T05:47:13;99465.28;;;21.45;nan
16664;BME280;8445;51.270;9.434;2022-08-01T05:49:39;99465.09;;;21.46;nan
16664;BME280;8445;51.270;9.434;2022-08-01T05:52:05;99469.09;;;21.51;nan
16664;BME280;8445;51.270;9.434;2022-08-01T05:54:31;99467.41;;;21.50;nan
16664;BME280;8445;51.270;9.434;2022-08-01T05:56:57;99472.22;;;21.54;nan
16664;BME280;8445;51.270;9.434;2022-08-01T05:59:28;99469.09;;;21.51;nan
16664;BME280;8445;51.270;9.434;2022-08-01T06:01:56;99461.28;;;21.56;nan
16664;BME280;8445;51.270;9.434;2022-08-01T06:04:22;99465.97;;;21.62;nan
16664;BME280;8445;51.270;9.434;2022-08-01T06:06:48;99476.72;;;21.62;nan
16664;BME280;8445;51.270;9.434;2022-08-01T06:09:14;99478.09;;;21.58;nan
16664;BME280;8445;51.270;9.434;2022-08-01T06:11:40;99481.59;;;21.58;nan
16664;BME280;8445;51.270;9.434;2022-08-01T06:14:06;99478.03;;;21.66;nan
16664;BME280;8445;51.270;9.434;2022-08-01T06:16:32;99490.75;;;21.72;nan
16664;BME280;8445;51.270;9.434;2022-08-01T06:19:00;99489.59;;;21.82;nan
16664;BME280;8445;51.270;9.434;2022-08-01T06:21:26;99478.72;;;21.90;nan
16664;BME280;8445;51.270;9.434;2022-08-01T06:23:51;99485.94;;;22.04;nan
16664;BME280;8445;51.270;9.434;2022-08-01T06:26:19;99490.09;;;22.22;nan
16664;BME280;8445;51.270;9.434;2022-08-01T06:28:45;99495.00;;;22.33;nan
16664;BME280;8445;51.270;9.434;2022-08-01T06:31:11;99498.47;;;22.49;nan
16664;BME280;8445;51.270;9.434;2022-08-01T06:33:39;99498.19;;;22.59;nan
16664;BME280;8445;51.270;9.434;2022-08-01T06:36:05;99499.31;;;22.71;nan
16664;BME280;8445;51.270;9.434;2022-08-01T06:38:31;99502.47;;;22.75;nan
16664;BME280;8445;51.270;9.434;2022-08-01T06:40:57;99502.59;;;22.88;nan
16664;BME280;8445;51.270;9.434;2022-08-01T06:43:23;99505.88;;;23.12;nan
16664;BME280;8445;51.270;9.434;2022-08-01T06:45:49;99504.28;;;23.46;nan
16664;BME280;8445;51.270;9.434;2022-08-01T06:48:15;99507.59;;;23.83;nan
16664;BME280;8445;51.270;9.434;2022-08-01T06:50:41;99513.34;;;24.09;nan
16664;BME280;8445;51.270;9.434;2022-08-01T06:53:07;99510.06;;;24.20;nan
16664;BME280;8445;51.270;9.434;2022-08-01T06:55:33;99508.00;;;24.29;nan
16664;BME280;8445;51.270;9.434;2022-08-01T06:57:59;99507.19;;;24.28;nan
16664;BME280;8445;51.270;9.434;2022-08-01T07:00:26;99524.16;;;24.16;nan
16664;BME280;8445;51.270;9.434;2022-08-01T07:02:57;99524.91;;;23.96;nan
16664;BME280;8445;51.270;9.434;2022-08-01T07:05:26;99518.97;;;23.72;nan
16664;BME280;8445;51.270;9.434;2022-08-01T07:07:53;99518.44;;;23.48;nan
16664;BME280;8445;51.270;9.434;2022-08-01T07:10:19;99522.31;;;23.39;nan
16664;BME280;8445;51.270;9.434;2022-08-01T07:12:45;99518.31;;;23.35;nan
16664;BME280;8445;51.270;9.434;2022-08-01T07:15:11;99509.75;;;23.60;nan
16664;BME280;8445;51.270;9.434;2022-08-01T07:17:42;99510.50;;;23.82;nan
16664;BME280;8445;51.270;9.434;2022-08-01T07:20:11;99511.03;;;23.99;nan
16664;BME280;8445;51.270;9.434;2022-08-01T07:22:38;99507.72;;;24.04;nan
16664;BME280;8445;51.270;9.434;2022-08-01T07:25:05;99511.66;;;24.01;nan
16664;BME280;8445;51.270;9.434;2022-08-01T07:27:32;99513.72;;;23.99;nan
16664;BME280;8445;51.270;9.434;2022-08-01T07:29:57;99511.78;;;23.93;nan
16664;BME280;8445;51.270;9.434;2022-08-01T07:32:24;99521.16;;;23.97;nan
16664;BME280;8445;51.270;9.434;2022-08-01T07:34:50;99515.75;;;23.97;nan
16664;BME280;8445;51.270;9.434;2022-08-01T07:37:16;99513.97;;;24.04;nan
16664;BME280;8445;51.270;9.434;2022-08-01T07:39:42;99514.19;;;24.16;nan
16664;BME280;8445;51.270;9.434;2022-08-01T07:42:08;99505.34;;;24.49;nan
16664;BME280;8445;51.270;9.434;2022-08-01T07:44:35;99517.69;;;24.79;nan
16664;BME280;8445;51.270;9.434;2022-08-01T07:47:01;99519.34;;;25.13;nan
16664;BME280;8445;51.270;9.434;2022-08-01T07:49:28;99510.59;;;25.45;nan
16664;BME280;8445;51.270;9.434;2022-08-01T07:51:54;99514.91;;;25.80;nan
16664;BME280;8445;51.270;9.434;2022-08-01T07:54:20;99514.19;;;26.04;nan
16664;BME280;8445;51.270;9.434;2022-08-01T07:56:46;99525.38;;;26.22;nan
16664;BME280;8445;51.270;9.434;2022-08-01T07:59:15;99529.53;;;26.24;nan
16664;BME280;8445;51.270;9.434;2022-08-01T08:01:41;99524.31;;;26.29;nan
16664;BME280;8445;51.270;9.434;2022-08-01T08:04:07;99525.75;;;26.32;nan
16664;BME280;8445;51.270;9.434;2022-08-01T08:06:33;99529.09;;;26.27;nan
16664;BME280;8445;51.270;9.434;2022-08-01T08:08:59;99533.75;;;26.13;nan
16664;BME280;8445;51.270;9.434;2022-08-01T08:11:28;99527.13;;;25.96;nan
16664;BME280;8445;51.270;9.434;2022-08-01T08:13:53;99538.66;;;25.84;nan
16664;BME280;8445;51.270;9.434;2022-08-01T08:16:19;99527.22;;;25.69;nan
16664;BME280;8445;51.270;9.434;2022-08-01T08:18:46;99530.78;;;25.63;nan
16664;BME280;8445;51.270;9.434;2022-08-01T08:21:12;99535.16;;;25.64;nan
16664;BME280;8445;51.270;9.434;2022-08-01T08:23:43;99538.22;;;25.81;nan
16664;BME280;8445;51.270;9.434;2022-08-01T08:26:50;99536.28;;;26.15;nan
16664;BME280;8445;51.270;9.434;2022-08-01T08:29:17;99537.78;;;26.49;nan
16664;BME280;8445;51.270;9.434;2022-08-01T08:31:43;99537.09;;;26.93;nan
16664;BME280;8445;51.270;9.434;2022-08-01T08:34:09;99540.63;;;27.19;nan
16664;BME280;8445;51.270;9.434;2022-08-01T08:36:35;99545.41;;;27.49;nan
16664;BME280;8445;51.270;9.434;2022-08-01T08:39:01;99543.22;;;27.58;nan
16664;BME280;8445;51.270;9.434;2022-08-01T08:41:33;99546.94;;;27.63;nan
16664;BME280;8445;51.270;9.434;2022-08-01T08:44:02;99543.59;;;27.61;nan
16664;BME280;8445;51.270;9.434;2022-08-01T08:46:30;99551.66;;;27.49;nan
16664;BME280;8445;51.270;9.434;2022-08-01T08:48:59;99545.13;;;27.32;nan
16664;BME280;8445;51.270;9.434;2022-08-01T08:51:27;99548.38;;;27.41;nan
16664;BME280;8445;51.270;9.434;2022-08-01T08:53:57;99550.41;;;27.45;nan
16664;BME280;8445;51.270;9.434;2022-08-01T08:56:27;99546.72;;;27.40;nan
16664;BME280;8445;51.270;9.434;2022-08-01T08:58:56;99546.16;;;27.56;nan
16664;BME280;8445;51.270;9.434;2022-08-01T09:01:22;99532.63;;;27.24;nan
16664;BME280;8445;51.270;9.434;2022-08-01T09:03:49;99547.06;;;27.25;nan
16664;BME280;8445;51.270;9.434;2022-08-01T09:06:14;99548.47;;;27.52;nan
16664;BME280;8445;51.270;9.434;2022-08-01T09:08:44;99547.53;;;27.84;nan
16664;BME280;8445;51.270;9.434;2022-08-01T09:11:10;99541.66;;;28.24;nan
16664;BME280;8445;51.270;9.434;2022-08-01T09:13:36;99542.00;;;28.59;nan
16664;BME280;8445;51.270;9.434;2022-08-01T09:16:04;99543.56;;;28.66;nan
16664;BME280;8445;51.270;9.434;2022-08-01T09:18:37;99540.91;;;28.78;nan
16664;BME280;8445;51.270;9.434;2022-08-01T09:23:56;99545.22;;;28.37;nan
16664;BME280;8445;51.270;9.434;2022-08-01T09:26:35;99547.63;;;28.45;nan
16664;BME280;8445;51.270;9.434;2022-08-01T09:29:17;99548.97;;;28.54;nan
16664;BME280;8445;51.270;9.434;2022-08-01T09:31:48;99553.63;;;28.66;nan
16664;BME280;8445;51.270;9.434;2022-08-01T09:34:30;99552.88;;;28.89;nan
16664;BME280;8445;51.270;9.434;2022-08-01T09:37:00;99554.97;;;28.75;nan
16664;BME280;8445;51.270;9.434;2022-08-01T09:39:30;99551.84;;;28.72;nan
16664;BME280;8445;51.270;9.434;2022-08-01T09:41:59;99550.31;;;28.64;nan
16664;BME280;8445;51.270;9.434;2022-08-01T09:44:44;99545.50;;;28.47;nan
16664;BME280;8445;51.270;9.434;2022-08-01T09:47:13;99552.03;;;28.58;nan
16664;BME280;8445;51.270;9.434;2022-08-01T09:49:41;99554.72;;;28.46;nan
16664;BME280;8445;51.270;9.434;2022-08-01T09:52:17;99558.63;;;28.38;nan
16664;BME280;8445;51.270;9.434;2022-08-01T09:54:54;99563.66;;;28.35;nan
16664;BME280;8445;51.270;9.434;2022-08-01T09:57:21;99556.06;;;28.55;nan
16664;BME280;8445;51.270;9.434;2022-08-01T09:59:50;99557.09;;;28.73;nan
16664;BME280;8445;51.270;9.434;2022-08-01T10:02:46;99551.34;;;28.51;nan
16664;BME280;8445;51.270;9.434;2022-08-01T10:05:12;99553.66;;;28.47;nan
16664;BME280;8445;51.270;9.434;2022-08-01T10:08:00;99549.00;;;28.36;nan
16664;BME280;8445;51.270;9.434;2022-08-01T10:10:27;99546.44;;;28.41;nan
16664;BME280;8445;51.270;9.434;2022-08-01T10:12:59;99546.66;;;28.39;nan
16664;BME280;8445;51.270;9.434;2022-08-01T10:15:27;99550.31;;;28.33;nan
16664;BME280;8445;51.270;9.434;2022-08-01T10:17:59;99542.47;;;28.25;nan
16664;BME280;8445;51.270;9.434;2022-08-01T10:20:30;99542.03;;;28.40;nan
16664;BME280;8445;51.270;9.434;2022-08-01T10:23:05;99535.91;;;28.75;nan
16664;BME280;8445;51.270;9.434;2022-08-01T10:25:42;99536.53;;;28.89;nan
16664;BME280;8445;51.270;9.434;2022-08-01T10:28:19;99535.00;;;28.51;nan
16664;BME280;8445;51.270;9.434;2022-08-01T10:30:49;99537.28;;;28.54;nan
16664;BME280;8445;51.270;9.434;2022-08-01T10:33:15;99541.06;;;28.65;nan
16664;BME280;8445;51.270;9.434;2022-08-01T10:35:41;99542.22;;;28.57;nan
16664;BME280;8445;51.270;9.434;2022-08-01T10:38:10;99541.25;;;28.51;nan
16664;BME280;8445;51.270;9.434;2022-08-01T10:40:38;99542.56;;;28.49;nan
16664;BME280;8445;51.270;9.434;2022-08-01T10:43:05;99545.75;;;28.76;nan
16664;BME280;8445;51.270;9.434;2022-08-01T10:45:31;99538.72;;;29.11;nan
16664;BME280;8445;51.270;9.434;2022-08-01T10:48:06;99552.38;;;29.58;nan
16664;BME280;8445;51.270;9.434;2022-08-01T10:50:46;99532.81;;;29.50;nan
16664;BME280;8445;51.270;9.434;2022-08-01T10:53:19;99538.59;;;29.65;nan
16664;BME280;8445;51.270;9.434;2022-08-01T10:58:36;99535.16;;;29.58;nan
16664;BME280;8445;51.270;9.434;2022-08-01T11:01:26;99540.75;;;28.73;nan
16664;BME280;8445;51.270;9.434;2022-08-01T11:10:07;99545.31;;;27.30;nan
16664;BME280;8445;51.270;9.434;2022-08-01T11:12:40;99538.66;;;27.07;nan
16664;BME280;8445;51.270;9.434;2022-08-01T11:17:42;99531.66;;;26.93;nan
16664;BME280;8445;51.270;9.434;2022-08-01T11:20:25;99534.19;;;27.38;nan
16664;BME280;8445;51.270;9.434;2022-08-01T11:30:44;99532.97;;;27.78;nan
16664;BME280;8445;51.270;9.434;2022-08-01T11:33:12;99543.28;;;27.70;nan
16664;BME280;8445;51.270;9.434;2022-08-01T11:38:38;99518.03;;;28.37;nan
16664;BME280;8445;51.270;9.434;2022-08-01T11:41:27;99519.16;;;28.17;nan
16664;BME280;8445;51.270;9.434;2022-08-01T11:46:58;99529.00;;;28.11;nan
16664;BME280;8445;51.270;9.434;2022-08-01T11:52:11;99523.59;;;28.42;nan
16664;BME280;8445;51.270;9.434;2022-08-01T11:54:54;99526.97;;;28.07;nan
16664;BME280;8445;51.270;9.434;2022-08-01T11:57:25;99529.41;;;27.96;nan
16664;BME280;8445;51.270;9.434;2022-08-01T11:59:57;99534.53;;;28.23;nan
16664;BME280;8445;51.270;9.434;2022-08-01T12:02:32;99532.16;;;28.76;nan
16664;BME280;8445;51.270;9.434;2022-08-01T12:05:10;99538.63;;;28.75;nan
16664;BME280;8445;51.270;9.434;2022-08-01T12:07:39;99525.78;;;29.06;nan
16664;BME280;8445;51.270;9.434;2022-08-01T12:10:08;99522.63;;;29.33;nan
16664;BME280;8445;51.270;9.434;2022-08-01T12:12:42;99532.00;;;29.37;nan
16664;BME280;8445;51.270;9.434;2022-08-01T12:15:10;99521.16;;;28.95;nan
16664;BME280;8445;51.270;9.434;2022-08-01T12:17:41;99522.63;;;28.67;nan
16664;BME280;8445;51.270;9.434;2022-08-01T12:20:11;99533.56;;;28.48;nan
16664;BME280;8445;51.270;9.434;2022-08-01T12:22:38;99528.25;;;28.84;nan
16664;BME280;8445;51.270;9.434;2022-08-01T12:25:15;99532.22;;;29.12;nan
16664;BME280;8445;51.270;9.434;2022-08-01T12:27:43;99532.78;;;29.26;nan
16664;BME280;8445;51.270;9.434;2022-08-01T12:30:16;99534.53;;;28.84;nan
16664;BME280;8445;51.270;9.434;2022-08-01T12:32:48;99536.28;;;28.48;nan
16664;BME280;8445;51.270;9.434;2022-08-01T12:35:23;99547.22;;;27.92;nan
16664;BME280;8445;51.270;9.434;2022-08-01T12:37:59;99549.16;;;27.48;nan
16664;BME280;8445;51.270;9.434;2022-08-01T12:40:35;99543.56;;;27.17;nan
16664;BME280;8445;51.270;9.434;2022-08-01T12:43:07;99555.03;;;26.94;nan
16664;BME280;8445;51.270;9.434;2022-08-01T12:45:42;99558.50;;;26.69;nan
16664;BME280;8445;51.270;9.434;2022-08-01T12:48:12;99554.22;;;26.16;nan
16664;BME280;8445;51.270;9.434;2022-08-01T12:50:45;99561.84;;;25.60;nan
16664;BME280;8445;51.270;9.434;2022-08-01T12:53:11;99564.94;;;24.96;nan
16664;BME280;8445;51.270;9.434;2022-08-01T12:55:52;99551.63;;;24.88;nan
16664;BME280;8445;51.270;9.434;2022-08-01T12:58:20;99556.19;;;24.74;nan
16664;BME280;8445;51.270;9.434;2022-08-01T13:00:49;99570.75;;;24.80;nan
16664;BME280;8445;51.270;9.434;2022-08-01T13:03:20;99564.34;;;25.08;nan
16664;BME280;8445;51.270;9.434;2022-08-01T13:05:57;99555.97;;;25.43;nan
16664;BME280;8445;51.270;9.434;2022-08-01T13:08:33;99566.72;;;26.17;nan
16664;BME280;8445;51.270;9.434;2022-08-01T13:11:06;99561.09;;;26.89;nan
16664;BME280;8445;51.270;9.434;2022-08-01T13:13:51;99566.25;;;27.55;nan
16664;BME280;8445;51.270;9.434;2022-08-01T13:16:24;99564.50;;;27.98;nan
16664;BME280;8445;51.270;9.434;2022-08-01T13:18:56;99567.31;;;28.10;nan
16664;BME280;8445;51.270;9.434;2022-08-01T13:21:25;99570.03;;;28.29;nan
16664;BME280;8445;51.270;9.434;2022-08-01T13:24:07;99559.16;;;27.91;nan
16664;BME280;8445;51.270;9.434;2022-08-01T13:26:53;99566.31;;;27.42;nan
16664;BME280;8445;51.270;9.434;2022-08-01T13:29:35;99575.13;;;26.86;nan
16664;BME280;8445;51.270;9.434;2022-08-01T13:32:18;99560.41;;;26.69;nan
16664;BME280;8445;51.270;9.434;2022-08-01T13:34:44;99568.28;;;26.38;nan
16664;BME280;8445;51.270;9.434;2022-08-01T13:37:10;99563.38;;;26.54;nan
16664;BME280;8445;51.270;9.434;2022-08-01T13:39:36;99563.63;;;26.91;nan
16664;BME280;8445;51.270;9.434;2022-08-01T13:42:15;99559.63;;;26.93;nan
16664;BME280;8445;51.270;9.434;2022-08-01T13:44:43;99564.28;;;27.12;nan
16664;BME280;8445;51.270;9.434;2022-08-01T13:47:12;99549.19;;;27.41;nan
16664;BME280;8445;51.270;9.434;2022-08-01T13:49:38;99551.88;;;27.48;nan
16664;BME280;8445;51.270;9.434;2022-08-01T13:52:04;99570.22;;;27.27;nan
16664;BME280;8445;51.270;9.434;2022-08-01T13:54:32;99566.44;;;27.03;nan
16664;BME280;8445;51.270;9.434;2022-08-01T13:56:58;99576.59;;;27.14;nan
16664;BME280;8445;51.270;9.434;2022-08-01T13:59:24;99561.53;;;27.18;nan
16664;BME280;8445;51.270;9.434;2022-08-01T14:01:51;99558.09;;;27.30;nan
16664;BME280;8445;51.270;9.434;2022-08-01T14:04:17;99560.03;;;27.48;nan
16664;BME280;8445;51.270;9.434;2022-08-01T14:06:42;99557.34;;;27.41;nan
16664;BME280;8445;51.270;9.434;2022-08-01T14:09:08;99557.94;;;27.43;nan
16664;BME280;8445;51.270;9.434;2022-08-01T14:11:35;99555.22;;;27.69;nan
16664;BME280;8445;51.270;9.434;2022-08-01T14:14:00;99552.81;;;27.60;nan
16664;BME280;8445;51.270;9.434;2022-08-01T14:16:26;99561.25;;;27.52;nan
16664;BME280;8445;51.270;9.434;2022-08-01T14:18:52;99564.44;;;27.17;nan
16664;BME280;8445;51.270;9.434;2022-08-01T14:21:18;99574.09;;;27.13;nan
16664;BME280;8445;51.270;9.434;2022-08-01T14:23:44;99580.56;;;27.12;nan